Time;durP1;ratioP1;P1;durP2;ratioP2;P2;SDS_P1;SDS_P2;PMS_P1;PMS_P2;Temp;Humidity;BMP_temperature;BMP_pressure;BME280_temperature;BME280_humidity;BME280_pressure;Samples;Min_cycle;Max_cycle;Signal;HPM_P1;HPM_P2
2022/11/23 02:12:13;;;;;;;9.52;1.90;;;7.40;99.90;;;;;;5033282;23;20057;-83
2022/11/23 02:14:41;;;;;;;10.85;2.30;;;7.50;99.90;;;;;;4994134;28;20034;-83
2022/11/23 02:17:09;;;;;;;12.65;2.10;;;9.50;99.90;;;;;;5001584;28;20038;-82
2022/11/23 02:19:53;;;;;;;12.13;2.13;;;7.30;99.90;;;;;;4984348;28;20042;-82
2022/11/23 02:22:43;;;;;;;8.82;2.17;;;7.50;99.90;;;;;;4985770;28;20058;-81
2022/11/23 02:25:18;;;;;;;11.07;2.38;;;7.90;99.90;;;;;;4975940;28;20057;-82
2022/11/23 02:27:44;;;;;;;13.50;2.40;;;8.80;99.90;;;;;;5001102;28;20039;-82
2022/11/23 02:30:12;;;;;;;8.85;2.13;;;7.40;99.90;;;;;;5011429;28;20010;-83
2022/11/23 02:32:38;;;;;;;10.13;2.45;;;7.40;99.90;;;;;;5015641;28;20007;-82
2022/11/23 02:35:04;;;;;;;12.93;2.30;;;7.50;99.90;;;;;;5015074;28;20049;-83
2022/11/23 02:37:30;;;;;;;11.60;2.70;;;;;;;;;;5020257;28;20022;-82
2022/11/23 02:39:57;;;;;;;10.48;2.03;;;7.50;99.90;;;;;;5021810;28;20042;-83
2022/11/23 02:42:25;;;;;;;11.32;2.17;;;7.90;99.90;;;;;;4996172;28;20030;-83
2022/11/23 02:45:15;;;;;;;10.60;1.85;;;7.50;99.90;;;;;;4985121;28;20014;-84
2022/11/23 02:47:40;;;;;;;8.13;1.98;;;7.50;99.90;;;;;;5017041;28;20014;-83
2022/11/23 02:50:06;;;;;;;12.00;2.10;;;7.50;99.90;;;;;;5016405;28;20014;-83
2022/11/23 02:52:32;;;;;;;14.18;2.65;;;7.50;99.90;;;;;;4991026;28;20014;-86
2022/11/23 02:54:58;;;;;;;9.32;1.88;;;7.80;99.90;;;;;;5014018;28;20034;-83
2022/11/23 02:57:24;;;;;;;9.70;2.30;;;;;;;;;;4997573;28;20022;-84
2022/11/23 02:59:50;;;;;;;9.60;2.10;;;7.50;99.90;;;;;;4994029;28;20027;-83
2022/11/23 03:02:16;;;;;;;7.97;2.10;;;5.70;99.90;;;;;;5011949;28;20026;-82
2022/11/23 03:04:42;;;;;;;11.00;1.77;;;;;;;;;;5000101;28;20041;-82
2022/11/23 03:07:07;;;;;;;14.60;2.15;;;7.50;99.90;;;;;;5016002;28;20031;-83
2022/11/23 03:09:33;;;;;;;11.00;2.08;;;;;;;;;;5011635;28;20045;-83
2022/11/23 03:11:59;;;;;;;13.98;2.28;;;7.50;99.90;;;;;;4997257;28;20027;-81
2022/11/23 03:14:25;;;;;;;10.00;2.72;;;7.60;99.90;;;;;;5018736;28;20073;-82
2022/11/23 03:27:10;;;;;;;10.30;1.85;;;7.50;99.90;;;;;;5010942;28;20054;-83
2022/11/23 03:29:36;;;;;;;10.80;2.33;;;;;;;;;;5002804;28;20030;-82
2022/11/23 03:32:02;;;;;;;9.43;2.08;;;7.40;99.90;;;;;;5001687;28;20026;-82
2022/11/23 03:34:28;;;;;;;7.45;1.83;;;7.30;99.90;;;;;;5002940;28;20057;-82
2022/11/23 03:36:54;;;;;;;8.18;1.75;;;;;;;;;;4986927;28;20034;-81
2022/11/23 03:39:20;;;;;;;10.52;2.60;;;7.40;99.90;;;;;;4999368;28;20031;-81
2022/11/23 03:41:46;;;;;;;6.78;1.92;;;7.50;99.90;;;;;;4981709;28;20037;-81
2022/11/23 03:44:12;;;;;;;11.73;2.40;;;10.00;99.90;;;;;;4968296;28;20041;-80
2022/11/23 03:46:37;;;;;;;10.23;2.00;;;7.40;99.90;;;;;;4993776;28;20030;-81
2022/11/23 03:49:06;;;;;;;12.57;2.33;;;8.20;99.90;;;;;;4995461;28;20030;-82
2022/11/23 03:51:32;;;;;;;7.60;1.90;;;8.00;99.90;;;;;;4987715;28;20030;-82
2022/11/23 03:53:57;;;;;;;12.27;2.35;;;7.40;99.90;;;;;;4998314;28;20050;-82
2022/11/23 03:56:23;;;;;;;12.05;2.22;;;9.10;99.90;;;;;;4984863;28;20073;-82
2022/11/23 03:58:49;;;;;;;13.00;2.70;;;7.30;99.90;;;;;;4975416;28;20073;-81
2022/11/23 04:01:15;;;;;;;10.18;1.80;;;5.40;99.90;;;;;;4981393;28;20094;-82
2022/11/23 04:03:41;;;;;;;16.20;2.17;;;;;;;;;;5001190;28;20041;-82
2022/11/23 04:06:07;;;;;;;12.25;2.63;;;7.40;99.90;;;;;;5002643;28;20530;-82
2022/11/23 04:08:33;;;;;;;11.05;2.03;;;10.00;99.90;;;;;;4990200;28;20023;-80
2022/11/23 04:10:59;;;;;;;17.10;2.20;;;9.50;99.90;;;;;;4994930;28;20026;-85
2022/11/23 04:13:25;;;;;;;8.02;2.35;;;8.60;99.90;;;;;;5015754;28;20007;-84
2022/11/23 04:15:50;;;;;;;11.02;2.10;;;9.90;99.90;;;;;;5017241;28;20037;-81
2022/11/23 04:18:16;;;;;;;10.88;2.17;;;;;;;;;;5015425;28;20027;-83
2022/11/23 04:20:44;;;;;;;13.38;2.13;;;7.30;99.90;;;;;;4993804;28;20069;-84
2022/11/23 04:23:09;;;;;;;10.68;2.38;;;7.30;99.90;;;;;;5005356;28;20030;-82
2022/11/23 04:25:38;;;;;;;15.07;2.70;;;9.00;99.90;;;;;;4993217;28;20030;-84
2022/11/23 04:28:04;;;;;;;10.32;2.05;;;7.50;99.90;;;;;;4994245;28;20058;-82
2022/11/23 04:30:30;;;;;;;15.27;2.63;;;9.30;99.90;;;;;;4981086;28;20027;-82
2022/11/23 04:32:56;;;;;;;8.50;2.20;;;9.80;99.90;;;;;;4986510;28;20023;-81
2022/11/23 04:35:22;;;;;;;10.30;2.47;;;7.20;99.90;;;;;;4969189;28;20033;-82
2022/11/23 04:37:48;;;;;;;14.43;2.50;;;7.60;99.90;;;;;;5004961;28;20113;-82
2022/11/23 04:40:14;;;;;;;7.20;2.17;;;7.10;99.90;;;;;;4982500;28;20033;-82
2022/11/23 04:42:40;;;;;;;16.73;3.50;;;7.20;99.90;;;;;;4979677;28;20031;-83
2022/11/23 04:45:06;;;;;;;12.43;3.75;;;7.10;99.90;;;;;;4980417;28;20018;-83
2022/11/23 04:47:33;;;;;;;9.23;2.20;;;7.10;99.90;;;;;;4979712;28;20046;-83
2022/11/23 04:49:59;;;;;;;8.27;2.88;;;7.00;99.90;;;;;;5010635;28;20010;-83
2022/11/23 04:52:25;;;;;;;11.30;2.50;;;7.00;99.90;;;;;;4998322;28;20031;-84
2022/11/23 04:54:51;;;;;;;10.70;2.60;;;7.20;99.90;;;;;;4985145;28;20041;-82
2022/11/23 04:57:17;;;;;;;12.50;2.85;;;;;;;;;;4991224;28;20022;-82
2022/11/23 04:59:43;;;;;;;8.20;2.80;;;7.10;99.90;;;;;;4989007;28;20041;-81
2022/11/23 05:02:11;;;;;;;9.70;2.78;;;7.10;99.90;;;;;;5008648;28;20499;-81
2022/11/23 05:04:39;;;;;;;14.20;3.10;;;7.20;99.90;;;;;;4985463;28;20026;-81
2022/11/23 05:07:05;;;;;;;9.20;2.33;;;7.00;99.90;;;;;;4990973;28;20043;-83
2022/11/23 05:09:33;;;;;;;9.43;2.38;;;7.10;99.90;;;;;;5008787;28;20022;-83
2022/11/23 05:50:50;;;;;;;10.45;3.47;;;6.90;99.90;;;;;;4983195;28;20043;-81
2022/11/23 05:53:16;;;;;;;9.48;2.50;;;7.40;99.90;;;;;;4990590;28;20027;-82
2022/11/23 05:55:42;;;;;;;18.77;4.15;;;;;;;;;;4977949;28;20054;-81
2022/11/23 05:58:08;;;;;;;12.52;3.13;;;6.90;99.90;;;;;;4993818;28;20033;-81
2022/11/23 06:00:34;;;;;;;9.18;2.90;;;6.80;99.90;;;;;;4974116;28;20031;-82
2022/11/23 06:03:00;;;;;;;10.82;2.97;;;7.50;99.90;;;;;;4990909;28;20057;-82
2022/11/23 06:05:27;;;;;;;11.82;2.75;;;6.90;99.90;;;;;;5009424;28;20018;-82
2022/11/23 06:07:53;;;;;;;11.93;2.83;;;7.00;99.90;;;;;;4999043;28;20030;-81
2022/11/23 06:10:19;;;;;;;15.52;2.78;;;6.80;99.90;;;;;;4977617;28;20038;-80
2022/11/23 06:12:46;;;;;;;10.38;2.60;;;6.80;99.90;;;;;;4980481;28;20026;-82
2022/11/23 06:15:12;;;;;;;9.13;2.95;;;9.70;99.90;;;;;;4978233;28;20053;-82
2022/11/23 06:17:38;;;;;;;11.25;3.10;;;;;;;;;;4979375;28;20090;-81
2022/11/23 06:20:07;;;;;;;11.82;2.80;;;6.80;99.90;;;;;;4986919;28;20085;-84
2022/11/23 06:22:33;;;;;;;9.65;2.63;;;6.80;99.90;;;;;;4998836;28;20015;-84
2022/11/23 06:25:00;;;;;;;11.38;3.30;;;6.90;99.90;;;;;;5001141;28;20145;-85
2022/11/23 06:27:26;;;;;;;8.45;2.88;;;;;;;;;;5015771;28;20034;-83
2022/11/23 06:29:51;;;;;;;12.70;2.80;;;6.90;99.90;;;;;;5018976;28;20050;-81
2022/11/23 06:32:17;;;;;;;12.75;3.47;;;;;;;;;;4990543;28;20030;-81
2022/11/23 06:34:43;;;;;;;13.30;3.40;;;6.80;99.90;;;;;;4995867;28;20025;-82
2022/11/23 06:37:09;;;;;;;10.25;3.13;;;;;;;;;;4983551;28;20112;-85
2022/11/23 06:52:30;;;;;;;14.27;3.83;;;6.70;99.90;;;;;;5028408;28;20032;-84
2022/11/23 06:54:56;;;;;;;11.43;3.33;;;;;;;;;;4998008;28;20038;-83
2022/11/23 06:57:22;;;;;;;10.02;3.35;;;6.70;99.90;;;;;;5030004;28;20025;-84
2022/11/23 06:59:48;;;;;;;11.95;3.72;;;;;;;;;;5033613;28;20034;-83
2022/11/23 07:02:14;;;;;;;9.20;3.45;;;6.70;99.90;;;;;;5016861;28;20081;-83
2022/11/23 07:04:41;;;;;;;12.40;3.88;;;;;;;;;;5015696;28;20019;-84
2022/11/23 07:07:08;;;;;;;8.70;3.33;;;6.60;99.90;;;;;;5036221;28;20018;-86
2022/11/23 07:09:35;;;;;;;10.40;3.08;;;6.50;99.90;;;;;;5020431;28;20018;-86
2022/11/23 07:12:03;;;;;;;9.98;3.25;;;8.30;99.90;;;;;;5014811;28;20038;-85
2022/11/23 07:14:29;;;;;;;11.45;3.13;;;5.70;99.90;;;;;;5012396;28;20023;-82
2022/11/23 07:16:54;;;;;;;12.07;3.00;;;6.30;99.90;;;;;;5030176;23;20044;-82
2022/11/23 07:19:20;;;;;;;10.20;3.28;;;6.50;99.90;;;;;;5016166;28;20054;-84
2022/11/23 07:21:46;;;;;;;11.35;3.08;;;9.10;99.90;;;;;;5001682;28;20023;-85
2022/11/23 07:24:12;;;;;;;11.75;3.70;;;;;;;;;;5016421;28;20018;-82
2022/11/23 07:26:38;;;;;;;11.02;3.47;;;6.30;99.90;;;;;;5000623;28;20100;-84
2022/11/23 07:29:03;;;;;;;12.13;2.90;;;7.70;99.90;;;;;;5001719;28;20015;-86
2022/11/23 07:31:29;;;;;;;11.07;2.80;;;6.50;99.90;;;;;;5000244;28;20045;-83
2022/11/23 07:33:55;;;;;;;8.68;2.67;;;6.30;99.90;;;;;;5012713;28;20007;-83
2022/11/23 07:36:21;;;;;;;12.40;3.33;;;6.70;99.90;;;;;;5000968;28;20085;-84
2022/11/23 07:38:48;;;;;;;7.90;3.35;;;;;;;;;;5014629;28;20043;-85
2022/11/23 07:41:14;;;;;;;9.88;2.78;;;6.40;99.90;;;;;;5017736;28;20030;-82
2022/11/23 07:43:42;;;;;;;15.02;2.95;;;6.40;99.90;;;;;;5018704;28;20015;-83
2022/11/23 07:46:09;;;;;;;9.02;3.28;;;6.30;99.90;;;;;;5000635;28;20027;-82
2022/11/23 07:48:42;;;;;;;12.20;3.45;;;6.30;99.90;;;;;;5013054;28;20031;-83
2022/11/23 07:51:11;;;;;;;13.75;3.20;;;6.20;99.90;;;;;;4982440;28;20149;-83
2022/11/23 07:53:37;;;;;;;9.88;2.97;;;5.60;99.90;;;;;;5002271;28;20045;-82
2022/11/23 07:56:03;;;;;;;10.57;3.00;;;6.30;99.90;;;;;;4980561;28;20034;-82
2022/11/23 07:58:28;;;;;;;9.35;3.03;;;6.40;99.90;;;;;;4996384;28;20026;-82
2022/11/23 08:00:54;;;;;;;11.20;2.70;;;;;;;;;;4984027;28;20045;-81
2022/11/23 08:03:21;;;;;;;20.20;3.65;;;;;;;;;;5005650;28;20038;-83
2022/11/23 08:05:47;;;;;;;11.65;3.50;;;6.50;99.90;;;;;;4982229;28;20026;-83
2022/11/23 08:08:16;;;;;;;13.23;4.20;;;;;;;;;;4983799;28;20046;-82
2022/11/23 09:20:45;;;;;;;11.23;2.78;;;7.20;99.90;;;;;;4991199;26;20031;-87
2022/11/23 09:23:17;;;;;;;8.27;2.47;;;7.20;99.90;;;;;;4971843;28;20003;-87
2022/11/23 09:25:46;;;;;;;8.68;2.40;;;7.20;99.90;;;;;;4967491;28;20028;-85
2022/11/23 09:28:13;;;;;;;10.85;2.67;;;7.50;99.90;;;;;;4975131;29;20012;-84
2022/11/23 09:30:40;;;;;;;12.98;2.58;;;8.20;99.90;;;;;;4982087;28;20035;-87
2022/11/23 09:33:07;;;;;;;7.10;2.78;;;7.50;99.90;;;;;;4994775;28;20023;-86
2022/11/23 09:35:33;;;;;;;10.70;2.92;;;7.40;99.90;;;;;;4992854;28;20042;-86
2022/11/23 09:37:59;;;;;;;8.50;2.70;;;7.60;99.90;;;;;;4991875;28;20050;-85
2022/11/23 09:40:36;;;;;;;9.63;3.00;;;7.60;99.90;;;;;;4972265;28;20103;-86
2022/11/23 09:43:37;;;;;;;10.45;3.15;;;7.60;99.90;;;;;;4972515;28;20019;-88
2022/11/23 09:46:30;;;;;;;11.25;2.72;;;7.70;99.90;;;;;;4963240;28;20037;-88
2022/11/23 09:49:07;;;;;;;6.78;2.25;;;7.80;99.90;;;;;;4935177;28;20392;-87
2022/11/23 09:51:36;;;;;;;8.57;1.92;;;8.90;99.90;;;;;;4975941;29;20031;-86
2022/11/23 09:54:10;;;;;;;11.27;2.20;;;7.90;99.90;;;;;;4959776;28;20023;-87
2022/11/23 09:56:37;;;;;;;8.35;2.58;;;8.00;99.90;;;;;;4959557;29;20028;-87
2022/11/23 09:59:22;;;;;;;9.52;2.20;;;8.50;99.90;;;;;;4985730;28;20094;-88
2022/11/23 10:01:48;;;;;;;9.55;2.30;;;8.20;99.90;;;;;;4983747;28;20019;-90
2022/11/23 10:04:19;;;;;;;6.85;1.83;;;8.30;99.90;;;;;;4993416;28;20026;-85
2022/11/23 10:06:52;;;;;;;8.55;1.75;;;10.20;99.90;;;;;;4973882;28;20027;-84
2022/11/23 10:09:47;;;;;;;7.68;2.00;;;8.60;99.90;;;;;;4964599;28;20035;-86
2022/11/23 10:12:21;;;;;;;4.85;1.60;;;8.60;99.90;;;;;;4960460;28;20015;-87
2022/11/23 10:14:47;;;;;;;8.93;1.95;;;8.70;99.90;;;;;;4965734;28;20023;-86
2022/11/23 10:17:28;;;;;;;10.32;1.70;;;10.00;99.90;;;;;;4977100;28;20026;-87
2022/11/23 10:20:16;;;;;;;5.75;1.65;;;11.00;99.90;;;;;;4980570;28;20035;-86
2022/11/23 10:23:00;;;;;;;3.33;1.30;;;8.90;99.90;;;;;;4984918;28;20034;-88
2022/11/23 10:25:32;;;;;;;8.90;1.90;;;10.30;99.90;;;;;;4967064;28;20081;-85
2022/11/23 10:28:05;;;;;;;3.88;1.83;;;9.00;99.90;;;;;;4978221;28;20026;-89
2022/11/23 10:30:31;;;;;;;9.35;1.65;;;9.00;99.90;;;;;;4985116;28;20082;-90
2022/11/23 10:33:16;;;;;;;7.85;2.17;;;10.60;99.90;;;;;;4972017;28;20100;-87
2022/11/23 10:35:42;;;;;;;7.22;1.48;;;9.30;99.90;;;;;;4965330;28;20086;-86
2022/11/23 10:38:16;;;;;;;8.60;1.95;;;10.80;99.90;;;;;;4971361;28;20348;-88
2022/11/23 10:41:13;;;;;;;9.88;1.80;;;8.70;99.90;;;;;;4969312;28;20049;-88
2022/11/23 10:43:44;;;;;;;7.32;1.73;;;9.40;99.90;;;;;;4965861;28;20395;-87
2022/11/23 10:46:29;;;;;;;9.00;1.90;;;9.40;99.90;;;;;;4967788;28;20101;-86
2022/11/23 10:49:07;;;;;;;6.55;1.60;;;9.40;99.90;;;;;;4967779;28;20294;-86
2022/11/23 10:51:33;;;;;;;6.97;1.50;;;9.60;99.90;;;;;;4992956;28;20030;-84
2022/11/23 10:54:05;;;;;;;7.82;1.60;;;9.50;99.90;;;;;;4964775;28;20015;-83
2022/11/23 10:56:32;;;;;;;6.70;1.65;;;9.60;99.90;;;;;;4960164;28;20298;-84
2022/11/23 10:58:58;;;;;;;6.72;1.67;;;9.80;99.90;;;;;;4963110;28;20036;-84
2022/11/23 11:01:28;;;;;;;6.53;1.65;;;9.60;99.90;;;;;;4971572;28;20432;-87
2022/11/23 11:04:00;;;;;;;6.68;1.95;;;9.70;99.90;;;;;;4950236;28;20031;-87
2022/11/23 11:06:33;;;;;;;5.07;1.25;;;9.70;99.90;;;;;;4969828;28;20046;-86
2022/11/23 11:09:18;;;;;;;7.80;1.80;;;10.40;99.90;;;;;;4963700;28;20018;-83
2022/11/23 11:11:51;;;;;;;6.07;1.73;;;9.90;99.90;;;;;;4949931;28;20062;-86
2022/11/23 11:14:19;;;;;;;6.22;1.85;;;9.90;99.90;;;;;;4958383;28;20985;-85
2022/11/23 11:16:49;;;;;;;5.90;1.60;;;9.90;99.90;;;;;;4959734;28;20027;-84
2022/11/23 11:19:21;;;;;;;8.23;1.60;;;10.00;99.90;;;;;;4962860;28;20041;-84
2022/11/23 11:21:47;;;;;;;7.28;1.65;;;10.00;99.90;;;;;;4969754;28;20022;-82
2022/11/23 11:24:41;;;;;;;8.32;2.00;;;10.30;99.90;;;;;;4960167;28;20038;-85
2022/11/23 11:27:14;;;;;;;7.38;1.60;;;10.10;99.90;;;;;;4946047;29;20563;-86
2022/11/23 11:29:43;;;;;;;9.40;2.25;;;10.10;99.90;;;;;;4972883;28;20527;-84
2022/11/23 11:32:35;;;;;;;11.27;2.85;;;10.10;99.90;;;;;;4962787;28;20109;-86
2022/11/23 11:35:29;;;;;;;4.88;1.33;;;10.10;99.90;;;;;;4966720;28;20074;-84
2022/11/23 11:38:03;;;;;;;4.40;1.42;;;10.20;99.90;;;;;;4959208;28;20035;-87
2022/11/23 11:40:31;;;;;;;7.70;1.30;;;10.30;99.90;;;;;;4965661;28;20054;-86
2022/11/23 11:43:06;;;;;;;6.80;1.42;;;11.10;99.90;;;;;;4965672;28;20035;-90
2022/11/23 11:45:38;;;;;;;6.05;1.58;;;10.30;99.90;;;;;;4966707;28;20027;-87
2022/11/23 11:48:24;;;;;;;6.78;1.33;;;10.80;99.90;;;;;;4965934;28;20038;-87
2022/11/23 11:50:55;;;;;;;5.07;1.20;;;10.40;99.90;;;;;;4966982;28;20027;-87
2022/11/23 11:53:37;;;;;;;7.32;1.30;;;10.40;99.90;;;;;;4966719;28;20376;-88
2022/11/23 11:56:07;;;;;;;7.28;1.40;;;10.40;99.90;;;;;;4965457;28;20046;-87
2022/11/23 11:58:35;;;;;;;4.10;1.05;;;10.40;99.90;;;;;;4972181;28;20027;-86
2022/11/23 12:01:17;;;;;;;11.90;1.40;;;10.50;99.90;;;;;;4964438;28;20046;-89
2022/11/23 12:03:59;;;;;;;6.25;1.20;;;10.60;99.90;;;;;;4992834;28;20026;-86
2022/11/23 12:06:34;;;;;;;4.95;1.35;;;10.60;99.90;;;;;;4976006;28;20027;-87
2022/11/23 12:09:15;;;;;;;6.45;1.70;;;10.90;99.90;;;;;;4982269;28;20415;-88
2022/11/23 12:11:41;;;;;;;2.90;1.13;;;10.50;99.90;;;;;;4963587;28;20019;-86
2022/11/23 12:14:11;;;;;;;5.80;1.70;;;10.50;99.90;;;;;;4983109;28;20443;-85
2022/11/23 12:17:05;;;;;;;6.53;1.30;;;10.60;99.90;;;;;;4964015;28;20027;-83
2022/11/23 12:19:59;;;;;;;6.50;2.03;;;10.60;99.90;;;;;;4966860;28;20021;-88
2022/11/23 12:22:36;;;;;;;5.57;1.92;;;10.70;99.90;;;;;;4968288;28;20031;-84
2022/11/23 12:25:26;;;;;;;9.18;1.70;;;10.70;99.90;;;;;;4963049;28;20062;-84
2022/11/23 12:27:55;;;;;;;6.43;1.53;;;10.70;99.90;;;;;;4963176;28;20027;-89
2022/11/23 12:30:58;;;;;;;5.07;1.77;;;10.70;99.90;;;;;;4964262;28;20045;-84
2022/11/23 12:33:46;;;;;;;7.18;1.58;;;10.80;99.90;;;;;;4963750;28;20391;-82
2022/11/23 12:36:29;;;;;;;5.35;1.20;;;10.80;99.90;;;;;;4964640;28;20045;-86
2022/11/23 12:39:16;;;;;;;8.02;1.77;;;10.90;99.90;;;;;;4966387;28;20018;-87
2022/11/23 12:42:00;;;;;;;9.98;1.83;;;10.90;99.90;;;;;;4966167;28;20027;-88
2022/11/23 12:44:48;;;;;;;5.40;1.42;;;10.90;99.90;;;;;;4964888;28;20264;-87
2022/11/23 12:47:33;;;;;;;3.60;1.00;;;10.90;99.90;;;;;;4962362;28;20077;-87
2022/11/23 12:50:27;;;;;;;5.25;1.15;;;10.90;99.90;;;;;;4968052;28;20223;-85
2022/11/23 12:52:52;;;;;;;7.25;1.60;;;10.90;99.90;;;;;;4943101;29;20035;-88
2022/11/23 12:55:30;;;;;;;5.47;1.13;;;11.00;99.90;;;;;;4959758;29;20042;-86
2022/11/23 12:58:07;;;;;;;4.55;1.27;;;11.00;99.90;;;;;;4959208;29;20054;-86
2022/11/23 13:00:41;;;;;;;5.22;1.27;;;11.00;99.90;;;;;;4958074;28;20027;-85
2022/11/23 13:03:26;;;;;;;7.88;1.40;;;11.10;99.90;;;;;;4958821;28;20134;-86
2022/11/23 13:06:44;;;;;;;6.60;1.23;;;11.10;99.90;;;;;;4982226;28;20027;-85
2022/11/23 13:09:34;;;;;;;6.22;1.40;;;11.10;99.90;;;;;;4978952;28;20495;-86
2022/11/23 13:12:19;;;;;;;6.00;1.80;;;11.00;99.90;;;;;;4984133;28;20030;-87
2022/11/23 13:15:18;;;;;;;7.30;1.55;;;10.90;99.90;;;;;;4995972;28;20031;-86
2022/11/23 13:18:23;;;;;;;8.40;1.65;;;10.90;99.90;;;;;;4931942;28;20054;-86
2022/11/23 13:21:10;;;;;;;4.90;1.52;;;10.90;99.90;;;;;;4924144;28;20046;-85
2022/11/23 13:23:37;;;;;;;8.35;1.98;;;10.90;99.90;;;;;;4962901;28;20027;-87
2022/11/23 13:26:19;;;;;;;13.77;1.95;;;10.90;99.90;;;;;;4963576;28;20030;-86
2022/11/23 13:28:47;;;;;;;7.07;1.65;;;11.00;99.90;;;;;;4964449;28;20018;-87
2022/11/23 13:31:18;;;;;;;7.30;2.20;;;10.90;99.90;;;;;;4964048;28;20027;-85
2022/11/23 13:33:48;;;;;;;8.25;2.05;;;11.10;99.90;;;;;;4980881;28;20035;-87
2022/11/23 13:36:29;;;;;;;6.72;1.45;;;10.90;99.90;;;;;;4963404;28;20034;-87
2022/11/23 13:38:56;;;;;;;3.25;1.30;;;11.00;99.90;;;;;;4963414;28;20030;-86
2022/11/23 13:41:34;;;;;;;7.43;1.63;;;10.90;99.90;;;;;;4980287;28;20099;-87
2022/11/23 13:44:30;;;;;;;4.93;1.38;;;10.80;99.90;;;;;;4964459;28;20041;-88
2022/11/23 13:47:00;;;;;;;4.43;1.45;;;10.90;99.90;;;;;;4965552;28;20042;-86
2022/11/23 13:49:38;;;;;;;4.45;1.63;;;11.00;99.90;;;;;;4964340;28;20078;-85
2022/11/23 13:52:24;;;;;;;4.55;1.60;;;11.10;99.90;;;;;;4964109;28;20053;-86
2022/11/23 13:55:04;;;;;;;15.27;1.80;;;10.80;99.90;;;;;;4963742;28;20392;-85
2022/11/23 13:57:29;;;;;;;10.75;1.70;;;10.80;99.90;;;;;;4963793;28;20022;-86
2022/11/23 14:00:33;;;;;;;8.35;1.55;;;10.80;99.90;;;;;;4963095;28;20085;-85
2022/11/23 14:03:50;;;;;;;6.35;1.75;;;10.70;99.90;;;;;;4963242;28;20505;-88
2022/11/23 14:06:38;;;;;;;6.72;1.80;;;10.70;99.90;;;;;;4964510;28;20026;-89
2022/11/23 14:09:19;;;;;;;6.32;2.00;;;10.60;99.90;;;;;;4965236;28;20027;-86
2022/11/23 14:11:55;;;;;;;4.57;1.98;;;10.70;99.90;;;;;;4981761;28;20023;-88
2022/11/23 14:14:27;;;;;;;5.18;1.40;;;10.70;99.90;;;;;;4981551;28;20019;-86
2022/11/23 14:17:12;;;;;;;5.13;1.23;;;10.60;99.90;;;;;;4963995;28;20133;-84
2022/11/23 14:19:49;;;;;;;5.35;1.30;;;10.50;99.90;;;;;;4962721;28;20066;-88
2022/11/23 14:22:33;;;;;;;6.88;1.77;;;10.50;99.90;;;;;;4962406;28;20034;-88
2022/11/23 14:25:12;;;;;;;6.25;1.95;;;10.50;99.90;;;;;;4964432;28;20031;-85
2022/11/23 14:27:46;;;;;;;3.42;1.50;;;10.50;99.90;;;;;;4981154;28;20030;-84
2022/11/23 14:30:42;;;;;;;7.25;2.03;;;10.40;99.90;;;;;;4972697;28;20114;-87
2022/11/23 14:33:25;;;;;;;4.32;1.35;;;10.30;99.90;;;;;;4967626;28;20033;-87
2022/11/23 14:36:07;;;;;;;5.03;1.50;;;11.10;99.90;;;;;;4963374;28;20095;-88
2022/11/23 14:39:12;;;;;;;6.07;1.70;;;10.30;99.90;;;;;;4962892;28;20079;-86
2022/11/23 14:41:41;;;;;;;4.38;1.52;;;10.30;99.90;;;;;;4963828;28;20373;-85
2022/11/23 14:44:11;;;;;;;6.30;1.60;;;10.20;99.90;;;;;;4963479;28;20031;-85
2022/11/23 14:47:01;;;;;;;3.05;1.20;;;10.20;99.90;;;;;;4963096;28;20114;-86
2022/11/23 14:49:26;;;;;;;5.25;1.50;;;10.20;99.90;;;;;;4975229;28;20033;-84
2022/11/23 14:51:52;;;;;;;4.00;1.20;;;10.10;99.90;;;;;;4965411;28;20118;-88
2022/11/23 14:54:19;;;;;;;4.90;1.40;;;10.10;99.90;;;;;;4966519;28;20475;-85
2022/11/23 14:56:47;;;;;;;6.57;1.58;;;10.90;99.90;;;;;;4965755;28;20046;-86
2022/11/23 14:59:23;;;;;;;6.00;1.55;;;10.10;99.90;;;;;;4980769;28;20030;-87
2022/11/23 15:01:53;;;;;;;5.25;1.55;;;10.30;99.90;;;;;;4984086;28;20109;-85
2022/11/23 15:04:35;;;;;;;5.32;1.63;;;10.00;99.90;;;;;;4966970;28;20058;-87
2022/11/23 15:07:25;;;;;;;12.27;2.92;;;10.80;99.90;;;;;;4974535;28;20050;-86
2022/11/23 15:09:54;;;;;;;6.30;1.95;;;10.00;99.90;;;;;;4973718;28;20023;-86
2022/11/23 15:12:26;;;;;;;4.32;2.05;;;9.50;99.90;;;;;;4970066;28;20022;-88
2022/11/23 15:14:56;;;;;;;8.25;2.70;;;9.40;99.90;;;;;;4969928;28;20022;-87
2022/11/23 15:17:22;;;;;;;10.93;3.75;;;9.30;99.90;;;;;;4963674;28;20038;-86
2022/11/23 15:19:58;;;;;;;6.75;2.63;;;9.20;99.90;;;;;;4960504;28;20046;-83
2022/11/23 15:22:26;;;;;;;6.85;2.35;;;9.10;99.90;;;;;;4953665;28;20027;-85
2022/11/23 15:24:52;;;;;;;4.28;1.50;;;9.10;99.90;;;;;;4964983;28;20090;-86
2022/11/23 15:27:30;;;;;;;5.15;1.77;;;9.30;99.90;;;;;;4984633;28;20058;-85
2022/11/23 15:29:58;;;;;;;4.97;1.60;;;9.50;99.90;;;;;;4959289;28;20023;-85
2022/11/23 15:32:29;;;;;;;5.10;1.55;;;10.20;99.90;;;;;;4963309;28;20027;-88
2022/11/23 15:34:58;;;;;;;5.03;1.70;;;10.10;99.90;;;;;;4970803;28;20050;-87
2022/11/23 15:37:24;;;;;;;6.70;2.10;;;10.00;99.90;;;;;;4964400;28;20035;-85
2022/11/23 15:39:51;;;;;;;5.38;1.83;;;9.60;99.90;;;;;;4959589;28;20118;-86
2022/11/23 15:42:20;;;;;;;4.50;2.03;;;8.70;99.90;;;;;;4969334;28;20053;-89
2022/11/23 15:44:46;;;;;;;6.10;2.10;;;9.80;99.90;;;;;;4976747;28;20035;-86
2022/11/23 15:47:21;;;;;;;6.20;2.20;;;9.40;99.90;;;;;;4978131;28;20023;-87
2022/11/23 15:49:48;;;;;;;8.70;2.55;;;8.50;99.90;;;;;;4987162;28;20027;-88
2022/11/23 15:52:19;;;;;;;7.75;2.20;;;9.10;99.90;;;;;;4956200;28;20022;-86
2022/11/23 15:54:45;;;;;;;6.50;2.50;;;8.40;99.90;;;;;;4961788;29;20023;-86
2022/11/23 15:57:30;;;;;;;7.15;2.70;;;9.30;99.90;;;;;;4955214;28;20339;-87
2022/11/23 15:59:59;;;;;;;8.02;2.63;;;10.50;99.90;;;;;;4965927;28;20026;-87
2022/11/23 16:02:27;;;;;;;6.30;2.53;;;9.00;99.90;;;;;;4966166;28;20046;-87
2022/11/23 16:05:13;;;;;;;7.03;2.78;;;8.40;99.90;;;;;;4966204;28;20518;-88
2022/11/23 16:08:22;;;;;;;5.47;2.28;;;8.40;99.90;;;;;;4965028;28;20023;-87
2022/11/23 16:10:54;;;;;;;6.10;2.70;;;8.40;99.90;;;;;;4958315;28;20094;-85
2022/11/23 16:13:35;;;;;;;8.25;3.05;;;8.40;99.90;;;;;;4961916;28;20054;-87
2022/11/23 16:16:05;;;;;;;6.63;2.45;;;8.40;99.90;;;;;;4966685;28;20023;-86
2022/11/23 16:18:31;;;;;;;6.20;2.83;;;8.40;99.90;;;;;;4981642;28;20109;-87
2022/11/23 16:21:00;;;;;;;7.93;2.90;;;9.60;99.90;;;;;;4990314;28;20042;-84
2022/11/23 16:23:48;;;;;;;8.98;2.90;;;8.50;99.90;;;;;;4964195;28;20095;-85
2022/11/23 16:26:14;;;;;;;5.88;2.80;;;8.30;99.90;;;;;;4964376;28;20026;-86
2022/11/23 16:28:52;;;;;;;7.20;3.17;;;8.30;99.90;;;;;;4962945;28;20137;-87
2022/11/23 16:31:38;;;;;;;6.78;3.15;;;8.30;99.90;;;;;;4970898;28;20039;-84
2022/11/23 16:34:18;;;;;;;12.38;4.70;;;8.30;99.90;;;;;;4964296;28;20065;-86
2022/11/23 16:36:43;;;;;;;12.70;5.60;;;8.50;99.90;;;;;;4959051;28;20039;-84
2022/11/23 16:39:09;;;;;;;8.35;3.10;;;8.20;99.90;;;;;;4957798;28;20053;-86
2022/11/23 16:41:36;;;;;;;11.77;3.80;;;9.60;99.90;;;;;;4959624;28;20384;-85
2022/11/23 16:44:02;;;;;;;6.95;3.55;;;8.30;99.90;;;;;;4959794;28;20037;-86
2022/11/23 16:46:28;;;;;;;10.55;5.88;;;9.70;99.90;;;;;;4963368;28;20086;-86
2022/11/23 16:48:56;;;;;;;9.63;4.15;;;8.30;99.90;;;;;;4988400;28;20035;-89
2022/11/23 16:51:22;;;;;;;16.63;7.40;;;8.20;99.90;;;;;;4979447;28;20031;-87
2022/11/23 16:53:47;;;;;;;7.63;3.85;;;8.20;99.90;;;;;;4963156;28;20116;-87
2022/11/23 16:56:20;;;;;;;5.40;2.53;;;8.20;99.90;;;;;;4959386;28;20500;-85
2022/11/23 16:58:46;;;;;;;8.93;3.60;;;9.30;99.90;;;;;;4953578;28;20031;-86
2022/11/23 17:01:25;;;;;;;4.53;2.53;;;8.30;99.90;;;;;;4987462;28;20031;-89
2022/11/23 17:03:51;;;;;;;5.47;2.47;;;8.30;99.90;;;;;;4981173;28;20079;-88
2022/11/23 17:06:21;;;;;;;5.68;2.25;;;8.60;99.90;;;;;;4963729;28;20037;-88
2022/11/23 17:08:48;;;;;;;4.38;2.42;;;9.40;99.90;;;;;;4963545;28;20015;-85
2022/11/23 17:11:23;;;;;;;5.97;2.70;;;8.40;99.90;;;;;;4952339;28;20129;-88
2022/11/23 17:13:51;;;;;;;7.78;2.95;;;8.30;99.90;;;;;;4966087;28;20038;-86
2022/11/23 17:16:22;;;;;;;7.43;3.22;;;8.30;99.90;;;;;;4962665;28;20094;-87
2022/11/23 17:18:48;;;;;;;6.85;3.53;;;9.30;99.90;;;;;;4958613;28;20043;-88
2022/11/23 17:21:13;;;;;;;6.95;3.67;;;9.30;99.90;;;;;;4962208;28;20049;-86
2022/11/23 17:23:41;;;;;;;6.05;3.00;;;8.70;99.90;;;;;;4956091;28;20035;-86
2022/11/23 17:26:26;;;;;;;9.13;3.10;;;9.60;99.90;;;;;;4956158;28;20566;-88
2022/11/23 17:28:51;;;;;;;4.70;2.72;;;8.40;99.90;;;;;;4979781;28;20019;-86
2022/11/23 17:31:17;;;;;;;5.57;2.55;;;9.70;99.90;;;;;;4964455;28;20033;-88
2022/11/23 17:33:43;;;;;;;6.68;3.42;;;8.50;99.90;;;;;;4938905;28;20078;-88
2022/11/23 17:36:09;;;;;;;8.80;4.22;;;8.70;99.90;;;;;;4960076;28;20030;-87
2022/11/23 17:38:37;;;;;;;5.60;3.60;;;8.60;99.90;;;;;;4978898;28;20543;-88
2022/11/23 17:41:02;;;;;;;5.68;3.28;;;10.00;99.90;;;;;;4965173;28;20011;-88
2022/11/23 17:43:28;;;;;;;6.40;3.10;;;8.60;99.90;;;;;;4962260;28;20417;-84
2022/11/23 17:45:54;;;;;;;6.03;3.33;;;8.60;99.90;;;;;;4993633;28;20089;-86
2022/11/23 17:48:21;;;;;;;8.93;4.25;;;8.20;99.90;;;;;;4964329;28;20090;-85